Time;durP1;ratioP1;P1;durP2;ratioP2;P2;SDS_P1;SDS_P2;PMS_P1;PMS_P2;Temp;Humidity;BMP_temperature;BMP_pressure;BME280_temperature;BME280_humidity;BME280_pressure;Samples;Min_cycle;Max_cycle;Signal;HPM_P1;HPM_P2
2022/05/14 00:00:15;;;;;;;;;;;;;;;;;;5069199;28;19978;-44
2022/05/14 00:02:41;;;;;;;;;;;;;;;;;;5074948;28;19908;-45
2022/05/14 00:05:06;;;;;;;;;;;;;;;;;;5089362;28;19999;-46
2022/05/14 00:07:33;;;;;;;;;;;;;;;;;;5089246;28;20021;-46
2022/05/14 00:09:59;;;;;;;;;;;;;;;;;;5088896;28;19904;-44
2022/05/14 00:15:09;;;;;;;;;;;;;;;;;;5068630;28;20004;-45
2022/05/14 00:17:35;;;;;;;;;;;;;;;;;;5068657;28;20042;-45
2022/05/14 00:20:01;;;;;;;;;;;;;;;;;;5068824;28;19915;-45
2022/05/14 00:22:27;;;;;;;;;;;;;;;;;;5067024;28;19908;-45
2022/05/14 00:24:53;;;;;;;;;;;;;;;;;;5068642;28;20417;-46
2022/05/14 00:27:22;;;;;;;;;;;;;;;;;;5068573;28;20004;-44
2022/05/14 00:29:47;;;;;;;;;;;;;;;;;;5067667;28;19912;-45
2022/05/14 00:32:13;;;;;;;;;;;;;;;;;;5066569;28;19932;-44
2022/05/14 00:34:39;;;;;;;;;;;;;;;;;;5068383;28;19908;-43
2022/05/14 00:37:05;;;;;;;;;;;;;;;;;;5068509;28;19949;-46
2022/05/14 00:39:31;;;;;;;;;;;;;;;;;;5067799;28;19975;-43
2022/05/14 00:41:57;;;;;;;;;;;;;;;;;;5064889;28;19908;-45
2022/05/14 00:44:23;;;;;;;;;;;;;;;;;;5068747;28;19918;-44
2022/05/14 00:46:49;;;;;;;;;;;;;;;;;;5067883;28;19912;-45
2022/05/14 00:49:15;;;;;;;;;;;;;;;;;;5068186;28;19912;-44
2022/05/14 00:51:41;;;;;;;;;;;;;;;;;;5067050;28;19904;-46
2022/05/14 00:54:07;;;;;;;;;;;;;;;;;;5047327;28;19916;-45
2022/05/14 00:56:33;;;;;;;;;;;;;;;;;;5047303;28;19912;-47
2022/05/14 00:58:59;;;;;;;;;;;;;;;;;;5047399;28;19905;-44
2022/05/14 01:01:25;;;;;;;;;;;;;;;;;;5046690;28;19939;-44
2022/05/14 01:03:51;;;;;;;;;;;;;;;;;;5064866;28;19987;-43
2022/05/14 01:06:17;;;;;;;;;;;;;;;;;;5067710;28;19905;-45
2022/05/14 01:08:43;;;;;;;;;;;;;;;;;;5065564;28;19912;-43
2022/05/14 01:11:09;;;;;;;;;;;;;;;;;;5067321;28;19926;-44
2022/05/14 01:13:35;;;;;;;;;;;;;;;;;;5066674;28;20415;-44
2022/05/14 01:16:01;;;;;;;;;;;;;;;;;;5067508;28;20303;-45
2022/05/14 01:18:27;;;;;;;;;;;;;;;;;;5067073;28;19908;-43
2022/05/14 01:20:53;;;;;;;;;;;;;;;;;;5067725;28;19913;-46
2022/05/14 01:23:19;;;;;;;;;;;;;;;;;;5067356;28;19938;-46
2022/05/14 01:28:29;;;;;;;;;;;;;;;;;;5066254;28;19954;-44
2022/05/14 01:30:55;;;;;;;;;;;;;;;;;;5067772;28;19932;-45
2022/05/14 01:33:21;;;;;;;;;;;;;;;;;;5067066;28;19913;-46
2022/05/14 01:35:47;;;;;;;;;;;;;;;;;;5066694;28;20007;-47
2022/05/14 01:38:13;;;;;;;;;;;;;;;;;;5066082;28;20032;-43
2022/05/14 01:40:39;;;;;;;;;;;;;;;;;;5066856;28;19912;-45
2022/05/14 01:43:05;;;;;;;;;;;;;;;;;;5067061;28;20028;-43
2022/05/14 01:45:31;;;;;;;;;;;;;;;;;;5066049;28;20018;-44
2022/05/14 01:47:57;;;;;;;;;;;;;;;;;;5065982;28;19930;-43
2022/05/14 01:50:23;;;;;;;;;;;;;;;;;;5066903;28;19908;-47
2022/05/14 01:52:49;;;;;;;;;;;;;;;;;;5066868;28;19961;-46
2022/05/14 01:55:15;;;;;;;;;;;;;;;;;;5066958;28;19916;-43
2022/05/14 01:57:41;;;;;;;;;;;;;;;;;;5064880;28;20356;-43
2022/05/14 02:00:07;;;;;;;;;;;;;;;;;;5066483;28;19912;-43
2022/05/14 02:02:33;;;;;;;;;;;;;;;;;;5066232;28;19908;-43
2022/05/14 02:04:59;;;;;;;;;;;;;;;;;;5065585;28;19912;-44
2022/05/14 02:07:25;;;;;;;;;;;;;;;;;;5067074;28;19963;-45
2022/05/14 02:09:51;;;;;;;;;;;;;;;;;;5066015;28;19943;-44
2022/05/14 02:12:17;;;;;;;;;;;;;;;;;;5066385;28;19912;-44
2022/05/14 02:14:44;;;;;;;;;;;;;;;;;;5064397;28;19919;-43
2022/05/14 02:17:10;;;;;;;;;;;;;;;;;;5066641;28;19912;-46
2022/05/14 02:19:36;;;;;;;;;;;;;;;;;;5064641;28;19916;-44
2022/05/14 02:22:05;;;;;;;;;;;;;;;;;;5066462;28;19911;-43
2022/05/14 02:24:31;;;;;;;;;;;;;;;;;;5065392;28;19928;-43
2022/05/14 02:26:57;;;;;;;;;;;;;;;;;;5066704;28;20301;-47
2022/05/14 02:29:24;;;;;;;;;;;;;;;;;;5066735;28;19973;-45
2022/05/14 02:31:50;;;;;;;;;;;;;;;;;;5065904;28;19927;-45
2022/05/14 02:34:16;;;;;;;;;;;;;;;;;;5065714;28;19912;-44
2022/05/14 02:36:42;;;;;;;;;;;;;;;;;;5066292;28;20435;-43
2022/05/14 02:39:08;;;;;;;;;;;;;;;;;;5066430;28;19904;-43
2022/05/14 02:41:34;;;;;;;;;;;;;;;;;;5066098;28;19910;-44
2022/05/14 02:44:00;;;;;;;;;;;;;;;;;;5065876;28;19962;-46
2022/05/14 02:46:26;;;;;;;;;;;;;;;;;;5066733;28;19908;-44
2022/05/14 02:48:52;;;;;;;;;;;;;;;;;;5066249;28;19969;-44
2022/05/14 02:51:18;;;;;;;;;;;;;;;;;;5065662;28;19956;-42
2022/05/14 02:53:43;;;;;;;;;;;;;;;;;;5048757;28;19923;-46
2022/05/14 02:56:09;;;;;;;;;;;;;;;;;;5066061;28;19904;-43
2022/05/14 03:01:20;;;;;;;;;;;;;;;;;;5066134;28;19962;-43
2022/05/14 03:03:46;;;;;;;;;;;;;;;;;;5064626;28;19912;-44
2022/05/14 03:06:12;;;;;;;;;;;;;;;;;;5066365;28;19911;-44
2022/05/14 03:08:38;;;;;;;;;;;;;;;;;;5066062;28;19940;-44
2022/05/14 03:11:04;;;;;;;;;;;;;;;;;;5066066;28;19991;-47
2022/05/14 03:13:30;;;;;;;;;;;;;;;;;;5064484;28;19962;-44
2022/05/14 03:15:56;;;;;;;;;;;;;;;;;;5065909;28;20463;-43
2022/05/14 03:18:22;;;;;;;;;;;;;;;;;;5066127;28;19904;-43
2022/05/14 03:20:48;;;;;;;;;;;;;;;;;;5065816;28;20015;-46
2022/05/14 03:23:15;;;;;;;;;;;;;;;;;;5066237;28;20006;-44
2022/05/14 03:25:41;;;;;;;;;;;;;;;;;;5064887;28;19913;-47
2022/05/14 03:28:07;;;;;;;;;;;;;;;;;;5065019;28;19945;-44
2022/05/14 03:30:33;;;;;;;;;;;;;;;;;;5065966;28;19909;-46
2022/05/14 03:32:59;;;;;;;;;;;;;;;;;;5069496;28;19911;-44
2022/05/14 03:35:24;;;;;;;;;;;;;;;;;;5069347;28;19912;-43
2022/05/14 03:37:50;;;;;;;;;;;;;;;;;;5069273;28;19915;-44
2022/05/14 03:40:16;;;;;;;;;;;;;;;;;;5069676;28;19962;-43
2022/05/14 03:42:42;;;;;;;;;;;;;;;;;;5069442;28;19966;-43
2022/05/14 03:45:08;;;;;;;;;;;;;;;;;;5067007;28;19924;-43
2022/05/14 03:47:34;;;;;;;;;;;;;;;;;;5068260;28;19915;-44
2022/05/14 03:50:00;;;;;;;;;;;;;;;;;;5069295;28;20038;-44
2022/05/14 03:52:26;;;;;;;;;;;;;;;;;;5069437;28;19919;-43
2022/05/14 03:54:52;;;;;;;;;;;;;;;;;;5068074;28;19919;-43
2022/05/14 03:57:18;;;;;;;;;;;;;;;;;;5069508;28;19908;-44
2022/05/14 03:59:44;;;;;;;;;;;;;;;;;;5068906;28;20024;-46
2022/05/14 04:02:10;;;;;;;;;;;;;;;;;;5069018;28;19904;-44
2022/05/14 04:04:36;;;;;;;;;;;;;;;;;;5068385;28;19908;-44
2022/05/14 04:07:02;;;;;;;;;;;;;;;;;;5069122;28;19915;-45
2022/05/14 04:09:28;;;;;;;;;;;;;;;;;;5069446;28;19958;-45
2022/05/14 04:11:54;;;;;;;;;;;;;;;;;;5068705;28;19913;-45
2022/05/14 04:14:20;;;;;;;;;;;;;;;;;;5068033;28;20020;-43
2022/05/14 04:16:46;;;;;;;;;;;;;;;;;;5068750;28;20330;-45
2022/05/14 04:19:11;;;;;;;;;;;;;;;;;;5068880;28;19977;-45
2022/05/14 04:21:38;;;;;;;;;;;;;;;;;;5068739;28;19905;-45
2022/05/14 04:24:04;;;;;;;;;;;;;;;;;;5067260;28;19955;-47
2022/05/14 04:26:30;;;;;;;;;;;;;;;;;;5067908;28;19908;-42
2022/05/14 04:28:56;;;;;;;;;;;;;;;;;;5069249;28;19958;-46
2022/05/14 04:31:22;;;;;;;;;;;;;;;;;;5068595;28;19931;-44
2022/05/14 04:33:47;;;;;;;;;;;;;;;;;;5068491;28;19949;-44
2022/05/14 04:36:13;;;;;;;;;;;;;;;;;;5066424;28;19912;-46
2022/05/14 04:38:39;;;;;;;;;;;;;;;;;;5068180;28;19904;-45
2022/05/14 04:41:05;;;;;;;;;;;;;;;;;;5068121;28;19969;-45
2022/05/14 04:43:31;;;;;;;;;;;;;;;;;;5067160;28;20559;-43
2022/05/14 04:45:57;;;;;;;;;;;;;;;;;;5068918;28;19911;-45
2022/05/14 04:48:23;;;;;;;;;;;;;;;;;;5068003;28;20053;-44
2022/05/14 04:50:49;;;;;;;;;;;;;;;;;;5068307;28;19931;-43
2022/05/14 04:53:15;;;;;;;;;;;;;;;;;;5068207;28;19912;-43
2022/05/14 04:55:41;;;;;;;;;;;;;;;;;;5067172;28;19914;-47
2022/05/14 04:58:08;;;;;;;;;;;;;;;;;;5066675;28;19913;-42
2022/05/14 05:00:34;;;;;;;;;;;;;;;;;;5067874;28;20127;-42
2022/05/14 05:05:45;;;;;;;;;;;;;;;;;;5066716;28;20425;-44
2022/05/14 05:08:12;;;;;;;;;;;;;;;;;;5066149;28;19909;-43
2022/05/14 05:10:38;;;;;;;;;;;;;;;;;;5066585;28;19914;-46
2022/05/14 05:13:04;;;;;;;;;;;;;;;;;;5067205;28;19912;-46
2022/05/14 05:15:29;;;;;;;;;;;;;;;;;;5067815;28;20363;-45
2022/05/14 05:17:55;;;;;;;;;;;;;;;;;;5067012;28;19944;-46
2022/05/14 05:20:21;;;;;;;;;;;;;;;;;;5066881;28;20009;-44
2022/05/14 05:22:48;;;;;;;;;;;;;;;;;;5067050;28;19914;-43
2022/05/14 05:25:14;;;;;;;;;;;;;;;;;;5067540;28;19915;-45
2022/05/14 05:27:40;;;;;;;;;;;;;;;;;;5073327;28;19908;-47
2022/05/14 05:30:06;;;;;;;;;;;;;;;;;;5085828;28;19926;-46
2022/05/14 05:32:32;;;;;;;;;;;;;;;;;;5067060;28;19910;-46
2022/05/14 05:34:58;;;;;;;;;;;;;;;;;;5067144;28;19962;-47
2022/05/14 05:37:24;;;;;;;;;;;;;;;;;;5066042;28;19918;-49
2022/05/14 05:39:49;;;;;;;;;;;;;;;;;;5067054;28;19912;-47
2022/05/14 05:42:15;;;;;;;;;;;;;;;;;;5067241;28;19904;-48
2022/05/14 05:44:41;;;;;;;;;;;;;;;;;;5066891;28;19927;-47
2022/05/14 05:47:07;;;;;;;;;;;;;;;;;;5066434;28;19912;-45
2022/05/14 05:49:33;;;;;;;;;;;;;;;;;;5067621;28;19944;-46
2022/05/14 05:51:59;;;;;;;;;;;;;;;;;;5067023;28;19904;-46
2022/05/14 05:57:09;;;;;;;;;;;;;;;;;;5065611;28;19915;-45
2022/05/14 05:59:36;;;;;;;;;;;;;;;;;;5067051;28;19909;-46
2022/05/14 06:02:02;;;;;;;;;;;;;;;;;;5067579;28;19936;-46
2022/05/14 06:04:28;;;;;;;;;;;;;;;;;;5066898;28;19940;-48
2022/05/14 06:06:54;;;;;;;;;;;;;;;;;;5064623;28;19952;-45
2022/05/14 06:09:20;;;;;;;;;;;;;;;;;;5066778;28;19947;-45
2022/05/14 06:11:46;;;;;;;;;;;;;;;;;;5065588;28;20614;-45
2022/05/14 06:14:12;;;;;;;;;;;;;;;;;;5066748;28;19904;-47
2022/05/14 06:16:38;;;;;;;;;;;;;;;;;;5063628;28;19912;-48
2022/05/14 06:19:04;;;;;;;;;;;;;;;;;;5066659;28;20260;-49
2022/05/14 06:21:30;;;;;;;;;;;;;;;;;;5065962;28;19912;-46
2022/05/14 06:23:56;;;;;;;;;;;;;;;;;;5066742;28;20406;-46
2022/05/14 06:26:22;;;;;;;;;;;;;;;;;;5063907;28;20042;-46
2022/05/14 06:28:48;;;;;;;;;;;;;;;;;;5066472;28;20002;-45
2022/05/14 06:31:16;;;;;;;;;;;;;;;;;;5064311;28;19920;-46
2022/05/14 06:33:43;;;;;;;;;;;;;;;;;;5065612;28;19908;-45
2022/05/14 06:36:09;;;;;;;;;;;;;;;;;;5066751;28;19904;-45
2022/05/14 06:38:36;;;;;;;;;;;;;;;;;;5066613;28;20391;-47
2022/05/14 06:41:02;;;;;;;;;;;;;;;;;;5066523;28;19915;-46
2022/05/14 06:43:28;;;;;;;;;;;;;;;;;;5066090;28;20010;-44
2022/05/14 06:45:54;;;;;;;;;;;;;;;;;;5066166;28;19995;-45
2022/05/14 06:48:21;;;;;;;;;;;;;;;;;;5066560;28;19951;-45
2022/05/14 06:50:48;;;;;;;;;;;;;;;;;;5064638;28;19912;-45
2022/05/14 06:53:14;;;;;;;;;;;;;;;;;;5063961;28;19912;-46
2022/05/14 06:55:40;;;;;;;;;;;;;;;;;;5065547;28;19915;-49
2022/05/14 06:58:06;;;;;;;;;;;;;;;;;;5066212;28;19905;-45
2022/05/14 07:00:32;;;;;;;;;;;;;;;;;;5066497;28;19919;-48
2022/05/14 07:08:28;;;;;;;;;;;;;;;;;;5070125;28;20436;-46
2022/05/14 07:10:54;;;;;;;;;;;;;;;;;;5068931;28;19912;-45
2022/05/14 07:13:20;;;;;;;;;;;;;;;;;;5067154;28;19909;-47
2022/05/14 07:15:46;;;;;;;;;;;;;;;;;;5070014;28;19908;-46
2022/05/14 07:18:12;;;;;;;;;;;;;;;;;;5068872;28;19908;-47
2022/05/14 07:20:38;;;;;;;;;;;;;;;;;;5068896;28;19922;-45
2022/05/14 07:23:04;;;;;;;;;;;;;;;;;;5068021;28;19943;-48
2022/05/14 07:25:30;;;;;;;;;;;;;;;;;;5077347;28;19950;-44
2022/05/14 07:27:58;;;;;;;;;;;;;;;;;;5090201;28;19914;-48
2022/05/14 07:30:24;;;;;;;;;;;;;;;;;;5078867;28;19908;-46
2022/05/14 07:32:51;;;;;;;;;;;;;;;;;;5068621;28;19966;-45
2022/05/14 07:35:17;;;;;;;;;;;;;;;;;;5070118;28;20322;-45
2022/05/14 07:37:43;;;;;;;;;;;;;;;;;;5070044;28;19915;-47
2022/05/14 07:40:09;;;;;;;;;;;;;;;;;;5069334;28;19919;-46
2022/05/14 07:42:34;;;;;;;;;;;;;;;;;;5068584;28;19913;-46
2022/05/14 07:45:00;;;;;;;;;;;;;;;;;;5067343;28;19908;-47
2022/05/14 07:47:26;;;;;;;;;;;;;;;;;;5067301;28;19904;-48
2022/05/14 07:49:52;;;;;;;;;;;;;;;;;;5069193;28;19969;-47
2022/05/14 07:52:18;;;;;;;;;;;;;;;;;;5069157;28;19954;-44
2022/05/14 07:54:45;;;;;;;;;;;;;;;;;;5068956;28;20418;-45
2022/05/14 07:57:11;;;;;;;;;;;;;;;;;;5067537;28;19913;-45
2022/05/14 07:59:37;;;;;;;;;;;;;;;;;;5067433;28;20415;-45
2022/05/14 08:02:05;;;;;;;;;;;;;;;;;;5069317;28;19904;-46
2022/05/14 08:04:32;;;;;;;;;;;;;;;;;;5069123;28;19905;-48
2022/05/14 08:06:59;;;;;;;;;;;;;;;;;;5067318;28;19916;-46
2022/05/14 08:09:25;;;;;;;;;;;;;;;;;;5067152;28;20003;-44
2022/05/14 08:11:52;;;;;;;;;;;;;;;;;;5067339;28;20417;-45
2022/05/14 08:14:19;;;;;;;;;;;;;;;;;;5067873;28;20083;-44
2022/05/14 08:16:45;;;;;;;;;;;;;;;;;;5067828;28;19915;-46
2022/05/14 08:19:10;;;;;;;;;;;;;;;;;;5065925;28;20287;-44
2022/05/14 08:24:30;;;;;;;;;;;;;;;;;;5067198;28;19947;-48
2022/05/14 08:26:56;;;;;;;;;;;;;;;;;;5067259;28;20394;-45
2022/05/14 08:29:23;;;;;;;;;;;;;;;;;;5067117;28;19905;-48
2022/05/14 08:31:50;;;;;;;;;;;;;;;;;;5066991;28;19915;-45
2022/05/14 08:34:17;;;;;;;;;;;;;;;;;;5067987;28;20351;-47
2022/05/14 08:36:44;;;;;;;;;;;;;;;;;;5067075;28;20367;-45
2022/05/14 08:39:11;;;;;;;;;;;;;;;;;;5066657;28;19912;-47
2022/05/14 08:41:37;;;;;;;;;;;;;;;;;;5066762;28;20319;-44
2022/05/14 08:44:03;;;;;;;;;;;;;;;;;;5066909;28;19911;-44
2022/05/14 08:46:28;;;;;;;;;;;;;;;;;;5066999;28;19908;-47
2022/05/14 08:48:54;;;;;;;;;;;;;;;;;;5067045;28;20327;-44
2022/05/14 08:51:21;;;;;;;;;;;;;;;;;;5066502;28;19989;-44
2022/05/14 08:53:47;;;;;;;;;;;;;;;;;;5066358;28;19989;-44
2022/05/14 08:56:13;;;;;;;;;;;;;;;;;;5067236;28;19912;-48
2022/05/14 08:58:39;;;;;;;;;;;;;;;;;;5066285;28;19915;-45
2022/05/14 09:01:05;;;;;;;;;;;;;;;;;;5066392;28;20303;-45
2022/05/14 09:03:32;;;;;;;;;;;;;;;;;;5066326;28;19909;-44
2022/05/14 09:05:58;;;;;;;;;;;;;;;;;;5066234;28;20394;-45
2022/05/14 09:08:24;;;;;;;;;;;;;;;;;;5066300;28;19908;-47
2022/05/14 09:10:49;;;;;;;;;;;;;;;;;;5066121;28;19909;-48
2022/05/14 09:13:15;;;;;;;;;;;;;;;;;;5067184;28;19940;-47
2022/05/14 09:15:41;;;;;;;;;;;;;;;;;;5066140;28;19905;-46
2022/05/14 09:18:08;;;;;;;;;;;;;;;;;;5066067;28;19908;-46
2022/05/14 09:20:34;;;;;;;;;;;;;;;;;;5065842;28;19912;-48
2022/05/14 09:23:00;;;;;;;;;;;;;;;;;;5072443;28;20011;-48
2022/05/14 09:25:26;;;;;;;;;;;;;;;;;;5086691;28;20371;-48
2022/05/14 09:27:54;;;;;;;;;;;;;;;;;;5077411;28;19915;-47
2022/05/14 09:30:20;;;;;;;;;;;;;;;;;;5065602;28;19915;-46
2022/05/14 09:32:45;;;;;;;;;;;;;;;;;;5065719;28;19904;-46
2022/05/14 09:35:13;;;;;;;;;;;;;;;;;;5065693;28;19911;-45
2022/05/14 09:37:39;;;;;;;;;;;;;;;;;;5065312;28;19908;-46
2022/05/14 09:40:06;;;;;;;;;;;;;;;;;;5065570;28;19951;-46
2022/05/14 09:42:32;;;;;;;;;;;;;;;;;;5065677;28;19904;-45
2022/05/14 09:44:58;;;;;;;;;;;;;;;;;;5066233;28;19911;-48
2022/05/14 09:47:24;;;;;;;;;;;;;;;;;;5065728;28;19912;-45
2022/05/14 09:49:50;;;;;;;;;;;;;;;;;;5065267;28;19908;-47
2022/05/14 09:52:16;;;;;;;;;;;;;;;;;;5065319;28;19904;-48
2022/05/14 09:54:42;;;;;;;;;;;;;;;;;;5065337;28;19951;-47
2022/05/14 09:57:08;;;;;;;;;;;;;;;;;;5065496;28;19904;-45
2022/05/14 09:59:35;;;;;;;;;;;;;;;;;;5063488;28;19916;-45
2022/05/14 10:02:01;;;;;;;;;;;;;;;;;;5066926;28;19943;-45
2022/05/14 10:04:26;;;;;;;;;;;;;;;;;;5066083;28;19951;-48
2022/05/14 10:06:52;;;;;;;;;;;;;;;;;;5065436;28;20292;-45
2022/05/14 10:09:18;;;;;;;;;;;;;;;;;;5065841;28;19909;-45
2022/05/14 10:11:45;;;;;;;;;;;;;;;;;;5065368;28;19967;-47
2022/05/14 10:14:11;;;;;;;;;;;;;;;;;;5067094;28;20367;-47
2022/05/14 10:16:37;;;;;;;;;;;;;;;;;;5066491;28;20395;-47
2022/05/14 10:19:03;;;;;;;;;;;;;;;;;;5066881;28;20007;-45
2022/05/14 10:21:29;;;;;;;;;;;;;;;;;;5065858;28;19916;-46
2022/05/14 10:26:46;;;;;;;;;;;;;;;;;;5066529;28;20383;-45
2022/05/14 10:29:12;;;;;;;;;;;;;;;;;;5066790;28;20297;-45
2022/05/14 10:31:38;;;;;;;;;;;;;;;;;;5065128;28;19908;-48
2022/05/14 10:34:04;;;;;;;;;;;;;;;;;;5066609;28;19946;-45
2022/05/14 10:36:30;;;;;;;;;;;;;;;;;;5067082;28;19905;-44
2022/05/14 10:38:56;;;;;;;;;;;;;;;;;;5066697;28;19910;-47
2022/05/14 10:41:22;;;;;;;;;;;;;;;;;;5066830;28;19916;-49
2022/05/14 10:43:48;;;;;;;;;;;;;;;;;;5070553;28;19904;-49
2022/05/14 10:46:14;;;;;;;;;;;;;;;;;;5068902;28;20009;-46
2022/05/14 10:48:42;;;;;;;;;;;;;;;;;;5069270;28;19912;-45
2022/05/14 10:51:07;;;;;;;;;;;;;;;;;;5069667;28;19908;-45
2022/05/14 10:53:33;;;;;;;;;;;;;;;;;;5067734;28;19908;-45
2022/05/14 10:55:59;;;;;;;;;;;;;;;;;;5068661;28;19919;-44
2022/05/14 10:58:36;;;;;;;;;;;;;;;;;;5069731;28;19950;-45
2022/05/14 11:01:02;;;;;;;;;;;;;;;;;;5068877;28;19908;-45
2022/05/14 11:03:29;;;;;;;;;;;;;;;;;;5070494;28;19908;-47
2022/05/14 11:05:55;;;;;;;;;;;;;;;;;;5068549;28;20321;-45
2022/05/14 11:08:21;;;;;;;;;;;;;;;;;;5079590;28;19912;-45
2022/05/14 11:10:47;;;;;;;;;;;;;;;;;;5085908;28;19949;-44
2022/05/14 11:13:13;;;;;;;;;;;;;;;;;;5075954;28;19958;-44
2022/05/14 11:15:39;;;;;;;;;;;;;;;;;;5069244;28;19904;-44
2022/05/14 11:18:05;;;;;;;;;;;;;;;;;;5068155;28;19932;-47
2022/05/14 11:20:31;;;;;;;;;;;;;;;;;;5070197;28;19909;-46
2022/05/14 11:22:57;;;;;;;;;;;;;;;;;;5084245;28;20045;-46
2022/05/14 11:25:23;;;;;;;;;;;;;;;;;;5084019;28;19958;-45
2022/05/14 11:27:49;;;;;;;;;;;;;;;;;;5068202;28;19935;-47
2022/05/14 11:30:15;;;;;;;;;;;;;;;;;;5070126;28;19908;-44
2022/05/14 11:32:41;;;;;;;;;;;;;;;;;;5069794;28;19904;-45
2022/05/14 11:35:07;;;;;;;;;;;;;;;;;;5069453;28;19937;-45
2022/05/14 11:37:33;;;;;;;;;;;;;;;;;;5068175;28;19904;-44
2022/05/14 11:39:59;;;;;;;;;;;;;;;;;;5069120;28;20022;-44
2022/05/14 11:42:25;;;;;;;;;;;;;;;;;;5068325;28;20010;-44
2022/05/14 11:44:52;;;;;;;;;;;;;;;;;;5062196;28;19905;-44
2022/05/14 11:47:18;;;;;;;;;;;;;;;;;;5066761;28;19927;-45
2022/05/14 11:49:44;;;;;;;;;;;;;;;;;;5068237;28;19995;-46
2022/05/14 11:52:10;;;;;;;;;;;;;;;;;;5067661;28;20777;-45
2022/05/14 11:54:36;;;;;;;;;;;;;;;;;;5068860;28;19920;-46
2022/05/14 11:57:02;;;;;;;;;;;;;;;;;;5069853;28;20291;-44
2022/05/14 11:59:28;;;;;;;;;;;;;;;;;;5069889;28;19901;-45
2022/05/14 12:01:54;;;;;;;;;;;;;;;;;;5068540;28;19915;-45
2022/05/14 12:04:20;;;;;;;;;;;;;;;;;;5067698;28;19912;-45
2022/05/14 12:06:47;;;;;;;;;;;;;;;;;;5068913;28;19965;-45
2022/05/14 12:09:13;;;;;;;1.05;0.85;;;;;;;;;;5068179;28;20826;-44
2022/05/14 12:11:58;;;;;;;0.63;0.60;;;;;;;;;;5068484;28;20525;-44
2022/05/14 12:14:31;;;;;;;0.60;0.60;;;;;;;;;;5067839;28;20020;-43
2022/05/14 12:16:59;;;;;;;0.95;0.82;;;;;;;;;;5068652;28;20036;-44
2022/05/14 12:19:27;;;;;;;0.70;0.70;;;;;;;;;;5065904;28;20032;-44
2022/05/14 12:22:05;;;;;;;0.93;0.70;;;;;;;;;;5068245;28;20028;-45
2022/05/14 12:24:33;;;;;;;0.63;0.60;;;;;;;;;;5068115;28;20024;-44
2022/05/14 12:27:00;;;;;;;0.47;0.40;;;;;;;;;;5065528;28;20020;-44
2022/05/14 12:29:26;;;;;;;;;;;;;;;;;;5064222;28;20068;-45
2022/05/14 12:34:37;;;;;;;;;;;;;;;;;;5058145;28;19930;-46
2022/05/14 12:37:03;;;;;;;;;;;;;;;;;;5066623;28;19912;-46
2022/05/14 12:39:29;;;;;;;;;;;;;;;;;;5069173;28;20626;-44
2022/05/14 12:41:55;;;;;;;;;;;;;;;;;;5068597;28;20006;-45
2022/05/14 12:44:22;;;;;;;;;;;;;;;;;;5068613;28;20000;-45
2022/05/14 12:46:48;;;;;;;;;;;;;;;;;;5068179;28;20423;-46
2022/05/14 12:49:15;;;;;;;;;;;;;;;;;;5064783;28;19912;-45
2022/05/14 12:51:41;;;;;;;;;;;;;;;;;;5068101;28;19908;-44
2022/05/14 12:54:07;;;;;;;;;;;;;;;;;;5067716;28;20351;-45
2022/05/14 12:56:33;;;;;;;;;;;;;;;;;;5067762;28;19908;-44
2022/05/14 12:58:59;;;;;;;;;;;;;;;;;;5068384;28;19998;-44
2022/05/14 13:01:25;;;;;;;;;;;;;;;;;;5067675;28;19942;-45
2022/05/14 13:03:52;;;;;;;;;;;;;;;;;;5065537;28;19954;-46
2022/05/14 13:06:19;;;;;;;;;;;;;;;;;;5065041;28;19954;-44
2022/05/14 13:08:45;;;;;;;;;;;;;;;;;;5068143;28;19912;-44
2022/05/14 13:11:11;;;;;;;;;;;;;;;;;;5066650;28;20046;-47
2022/05/14 13:13:38;;;;;;;;;;;;;;;;;;5061039;28;20003;-44
2022/05/14 13:16:05;;;;;;;;;;;;;;;;;;5058041;28;19911;-46
2022/05/14 13:18:31;;;;;;;;;;;;;;;;;;5067071;28;19912;-45
2022/05/14 13:20:57;;;;;;;;;;;;;;;;;;5067757;28;20013;-47
2022/05/14 13:23:23;;;;;;;;;;;;;;;;;;5066799;28;20389;-44
2022/05/14 13:25:49;;;;;;;;;;;;;;;;;;5066289;28;19904;-45
2022/05/14 13:28:16;;;;;;;;;;;;;;;;;;5065216;28;19962;-45
2022/05/14 13:30:42;;;;;;;;;;;;;;;;;;5065933;28;19932;-47
2022/05/14 13:33:07;;;;;;;;;;;;;;;;;;5065906;28;20379;-46
2022/05/14 13:38:18;;;;;;;;;;;;;;;;;;5066662;28;19916;-45
2022/05/14 13:40:44;;;;;;;;;;;;;;;;;;5066301;28;19916;-47
2022/05/14 13:43:10;;;;;;;;;;;;;;;;;;5067124;28;19987;-48
2022/05/14 13:45:36;;;;;;;;;;;;;;;;;;5065247;28;19912;-47
2022/05/14 13:48:02;;;;;;;;;;;;;;;;;;5066703;28;19908;-45
2022/05/14 13:50:28;;;;;;;;;;;;;;;;;;5067493;28;19908;-45
2022/05/14 13:52:54;;;;;;;;;;;;;;;;;;5066778;28;20020;-45
2022/05/14 13:55:20;;;;;;;;;;;;;;;;;;5065888;28;20391;-45
2022/05/14 13:57:46;;;;;;;;;;;;;;;;;;5062150;28;19923;-48
2022/05/14 14:00:12;;;;;;;;;;;;;;;;;;5066360;28;19924;-46
2022/05/14 14:02:38;;;;;;;;;;;;;;;;;;5064838;28;19908;-47
2022/05/14 14:05:04;;;;;;;;;;;;;;;;;;5061207;28;19939;-45
2022/05/14 14:07:30;;;;;;;;;;;;;;;;;;5067553;28;19956;-46
2022/05/14 14:09:56;;;;;;;;;;;;;;;;;;5066965;28;19908;-46
2022/05/14 14:12:24;;;;;;;;;;;;;;;;;;5066875;28;20456;-46
2022/05/14 14:14:50;;;;;;;;;;;;;;;;;;5066593;28;19908;-49
2022/05/14 14:17:16;;;;;;;;;;;;;;;;;;5066128;28;19908;-46
2022/05/14 14:19:42;;;;;;;;;;;;;;;;;;5066370;28;19912;-48
2022/05/14 14:22:08;;;;;;;;;;;;;;;;;;5066756;28;19904;-45
2022/05/14 14:24:34;;;;;;;;;;;;;;;;;;5064815;28;20025;-46
2022/05/14 14:27:00;;;;;;;;;;;;;;;;;;5067433;28;19986;-46
2022/05/14 14:29:26;;;;;;;;;;;;;;;;;;5066666;28;20678;-45
2022/05/14 14:31:52;;;;;;;;;;;;;;;;;;5065149;28;19909;-46
2022/05/14 14:34:18;;;;;;;;;;;;;;;;;;5050947;28;19934;-46
2022/05/14 14:36:44;;;;;;;;;;;;;;;;;;5048183;28;19951;-45
2022/05/14 14:39:10;;;;;;;;;;;;;;;;;;5066606;28;19927;-45
2022/05/14 14:41:36;;;;;;;;;;;;;;;;;;5065238;28;19912;-46
2022/05/14 14:44:05;;;;;;;;;;;;;;;;;;5066741;28;19962;-46
2022/05/14 14:46:31;;;;;;;;;;;;;;;;;;5066906;28;19908;-47
2022/05/14 14:49:03;;;;;;;;;;;;;;;;;;5066735;28;19909;-45
2022/05/14 14:51:29;;;;;;;;;;;;;;;;;;5065948;28;19957;-45
2022/05/14 14:53:54;;;;;;;;;;;;;;;;;;5067604;28;19916;-48
2022/05/14 14:56:20;;;;;;;;;;;;;;;;;;5064681;28;19908;-45
2022/05/14 14:58:46;;;;;;;;;;;;;;;;;;5065955;28;19919;-46
2022/05/14 15:01:13;;;;;;;;;;;;;;;;;;5053378;28;19916;-46
2022/05/14 15:03:39;;;;;;;;;;;;;;;;;;5065652;28;20477;-48
2022/05/14 15:06:06;;;;;;;;;;;;;;;;;;5070011;28;20416;-46
2022/05/14 15:08:32;;;;;;;;;;;;;;;;;;5066101;28;19944;-45
2022/05/14 15:10:58;;;;;;;;;;;;;;;;;;5067542;28;20009;-46
2022/05/14 15:13:24;;;;;;;;;;;;;;;;;;5070279;28;19916;-45
2022/05/14 15:15:50;;;;;;;;;;;;;;;;;;5065758;28;19915;-45
2022/05/14 15:18:15;;;;;;;;;;;;;;;;;;5066804;28;20029;-45
2022/05/14 15:20:42;;;;;;;;;;;;;;;;;;5067782;28;19968;-46
2022/05/14 15:23:07;;;;;;;;;;;;;;;;;;5068881;28;20561;-45
2022/05/14 15:25:33;;;;;;;;;;;;;;;;;;5076715;28;19992;-45
2022/05/14 15:27:59;;;;;;;;;;;;;;;;;;5076047;28;19908;-45
2022/05/14 15:30:25;;;;;;;;;;;;;;;;;;5068030;28;19954;-45
2022/05/14 15:32:51;;;;;;;;;;;;;;;;;;5069358;28;19978;-46
2022/05/14 15:35:19;;;;;;;;;;;;;;;;;;5068647;28;19914;-45
2022/05/14 15:37:46;;;;;;;;;;;;;;;;;;5069372;28;19912;-49
2022/05/14 15:40:13;;;;;;;;;;;;;;;;;;5068427;28;20314;-44
2022/05/14 15:42:39;;;;;;;;;;;;;;;;;;5069324;28;19908;-49
2022/05/14 15:45:05;;;;;;;;;;;;;;;;;;5069548;28;19908;-47
2022/05/14 15:47:31;;;;;;;;;;;;;;;;;;5069827;28;19999;-47
2022/05/14 15:49:57;;;;;;;;;;;;;;;;;;5069411;28;19908;-48
2022/05/14 15:52:23;;;;;;;;;;;;;;;;;;5069631;28;19982;-49
2022/05/14 15:54:49;;;;;;;;;;;;;;;;;;5067840;28;19912;-49
2022/05/14 15:57:15;;;;;;;;;;;;;;;;;;5069456;28;19947;-46
2022/05/14 15:59:41;;;;;;;;;;;;;;;;;;5069302;28;19904;-47
2022/05/14 16:02:06;;;;;;;;;;;;;;;;;;5067771;28;19938;-45
2022/05/14 16:04:36;;;;;;;;;;;;;;;;;;5069224;28;20003;-45
2022/05/14 16:07:04;;;;;;;1.50;0.82;;;;;;;;;;5069058;28;19908;-45
2022/05/14 16:09:30;;;;;;;0.88;0.70;;;;;;;;;;5069217;28;20442;-47
2022/05/14 16:17:07;;;;;;;0.70;0.70;;;;;;;;;;5068055;28;20048;-48
2022/05/14 16:19:33;;;;;;;1.02;0.85;;;;;;;;;;5068324;28;20505;-47
2022/05/14 16:22:00;;;;;;;0.90;0.70;;;;;;;;;;5068929;28;20055;-44
2022/05/14 16:24:26;;;;;;;1.30;0.70;;;;;;;;;;5067792;28;20031;-46
2022/05/14 16:26:52;;;;;;;2.30;0.85;;;;;;;;;;5066273;28;20509;-46
2022/05/14 16:29:18;;;;;;;1.77;1.00;;;;;;;;;;5067938;28;20036;-44
2022/05/14 16:31:44;;;;;;;1.58;0.80;;;;;;;;;;5061446;28;20112;-46
2022/05/14 16:34:12;;;;;;;1.08;0.80;;;;;;;;;;5066245;28;20522;-45
2022/05/14 16:36:38;;;;;;;0.80;0.80;;;;;;;;;;5066494;28;20025;-46
2022/05/14 16:39:04;;;;;;;0.63;0.63;;;;;;;;;;5067024;28;20445;-44
2022/05/14 16:41:30;;;;;;;2.20;0.82;;;;;;;;;;5066874;28;20583;-45
2022/05/14 16:43:56;;;;;;;1.00;0.70;;;;;;;;;;5067876;28;20025;-46
2022/05/14 16:46:23;;;;;;;1.00;0.70;;;;;;;;;;5068003;28;20036;-47
2022/05/14 16:48:49;;;;;;;1.48;0.88;;;;;;;;;;5064826;28;20032;-44
2022/05/14 16:51:16;;;;;;;0.88;0.88;;;;;;;;;;5066129;28;20025;-45
2022/05/14 16:53:42;;;;;;;0.80;0.70;;;;;;;;;;5068415;28;20040;-45
2022/05/14 16:56:12;;;;;;;1.08;0.88;;;;;;;;;;5067995;28;20060;-43
2022/05/14 16:58:39;;;;;;;1.20;0.80;;;;;;;;;;5067466;28;20545;-44
2022/05/14 17:01:06;;;;;;;1.30;0.70;;;;;;;;;;5066843;28;20514;-47
2022/05/14 17:03:33;;;;;;;1.27;0.80;;;;;;;;;;5067918;28;20029;-45